createdAt,value
2022-12-26T00:00:14.587Z,18.30
2022-12-26T00:00:46.225Z,19.92
2022-12-26T00:01:21.223Z,18.95
2022-12-26T00:01:53.946Z,17.98
2022-12-26T00:02:25.465Z,16.92
2022-12-26T00:02:57.129Z,17.98
2022-12-26T00:03:30.559Z,19.83
2022-12-26T00:04:02.678Z,22.58
2022-12-26T00:04:48.971Z,17.88
2022-12-26T00:05:24.255Z,19.42
2022-12-26T00:05:59.301Z,19.83
2022-12-26T00:06:31.909Z,21.15
2022-12-26T00:07:03.581Z,21.05
2022-12-26T00:07:35.093Z,23.25
2022-12-26T00:08:08.075Z,20.35
2022-12-26T00:08:39.614Z,24.10
2022-12-26T00:09:11.857Z,17.85
2022-12-26T00:09:43.931Z,18.10
2022-12-26T00:10:15.649Z,18.85
2022-12-26T00:10:47.256Z,19.05
2022-12-26T00:11:20.082Z,19.17
2022-12-26T00:11:51.628Z,21.65
2022-12-26T00:12:23.273Z,23.77
2022-12-26T00:12:56.448Z,19.33
2022-12-26T00:13:54.075Z,23.80
2022-12-26T00:14:25.646Z,20.42
2022-12-26T00:14:57.174Z,16.42
2022-12-26T00:15:28.701Z,20.20
2022-12-26T00:16:00.279Z,20.15
2022-12-26T00:16:32.229Z,19.27
2022-12-26T00:17:03.805Z,19.30
2022-12-26T00:17:35.330Z,22.80
2022-12-26T00:18:07.072Z,22.13
2022-12-26T00:18:39.216Z,17.38
2022-12-26T00:19:10.811Z,17.30
2022-12-26T00:19:43.404Z,15.52
2022-12-26T00:20:15.802Z,22.55
2022-12-26T00:20:47.363Z,19.17
2022-12-26T00:21:19.795Z,23.63
2022-12-26T00:21:52.632Z,24.20
2022-12-26T00:22:25.180Z,20.02
2022-12-26T00:22:56.772Z,19.90
2022-12-26T00:23:28.606Z,25.08
2022-12-26T00:24:01.259Z,20.40
2022-12-26T00:24:33.946Z,20.33
2022-12-26T00:25:06.482Z,23.27
2022-12-26T00:25:38.070Z,18.35
2022-12-26T00:26:15.222Z,21.52
2022-12-26T00:26:47.721Z,19.63
2022-12-26T00:27:19.269Z,19.08
2022-12-26T00:27:51.203Z,21.67
2022-12-26T00:28:22.744Z,24.15
2022-12-26T00:28:55.400Z,21.25
2022-12-26T00:29:26.966Z,22.25
2022-12-26T00:29:58.744Z,20.15
2022-12-26T00:30:30.296Z,20.42
2022-12-26T00:31:18.750Z,24.67
2022-12-26T00:31:52.521Z,22.45
2022-12-26T00:32:24.067Z,17.98
2022-12-26T00:32:55.851Z,22.45
2022-12-26T00:33:27.409Z,22.80
2022-12-26T00:33:59.812Z,22.02
2022-12-26T00:34:31.615Z,18.83
2022-12-26T00:35:03.382Z,23.98
2022-12-26T00:35:34.992Z,20.75
2022-12-26T00:36:09.720Z,22.92
2022-12-26T00:36:41.557Z,25.35
2022-12-26T00:37:13.299Z,23.88
2022-12-26T00:37:44.842Z,22.10
2022-12-26T00:38:16.542Z,23.40
2022-12-26T00:38:48.834Z,18.80
2022-12-26T00:39:20.347Z,21.80
2022-12-26T00:39:51.876Z,21.75
2022-12-26T00:40:23.466Z,24.30
2022-12-26T00:40:54.993Z,25.70
2022-12-26T00:41:27.050Z,25.10
2022-12-26T00:42:06.162Z,21.40
2022-12-26T00:42:37.794Z,21.58
2022-12-26T00:43:09.867Z,17.77
2022-12-26T00:43:41.439Z,21.00
2022-12-26T00:44:13.129Z,23.05
2022-12-26T00:44:44.637Z,24.50
2022-12-26T00:45:16.195Z,21.63
2022-12-26T00:45:48.274Z,21.25
2022-12-26T00:46:20.264Z,25.95
2022-12-26T00:46:51.953Z,25.83
2022-12-26T00:47:23.596Z,23.77
2022-12-26T00:47:55.087Z,22.52
2022-12-26T00:48:27.173Z,28.55
2022-12-26T00:48:58.827Z,25.50
2022-12-26T00:49:30.349Z,25.58
2022-12-26T00:50:53.547Z,27.17
2022-12-26T00:51:25.085Z,26.20
2022-12-26T00:51:56.765Z,23.80
2022-12-26T00:52:28.424Z,26.33
2022-12-26T00:53:00.015Z,22.88
2022-12-26T00:53:32.219Z,26.27
2022-12-26T00:54:03.839Z,26.63
2022-12-26T00:54:35.805Z,24.63
2022-12-26T00:55:07.720Z,25.08
2022-12-26T00:55:41.419Z,25.17
2022-12-26T00:56:13.245Z,27.15
2022-12-26T00:56:44.794Z,25.65
2022-12-26T00:57:16.393Z,28.30
2022-12-26T00:57:48.141Z,29.33
2022-12-26T00:58:20.423Z,25.40
2022-12-26T00:58:52.631Z,30.88
2022-12-26T00:59:24.201Z,28.65
2022-12-26T00:59:55.739Z,29.75
2022-12-26T01:00:27.250Z,25.50
2022-12-26T01:01:10.035Z,27.17
2022-12-26T01:01:41.870Z,27.42
2022-12-26T01:02:32.488Z,26.83
2022-12-26T01:03:07.809Z,24.77
2022-12-26T01:03:39.943Z,25.60
2022-12-26T01:04:11.554Z,27.80
2022-12-26T01:04:43.283Z,26.70
2022-12-26T01:05:15.689Z,27.88
2022-12-26T01:05:51.488Z,24.23
2022-12-26T01:06:23.987Z,25.13
2022-12-26T01:06:58.544Z,26.23
2022-12-26T01:08:19.582Z,30.27
2022-12-26T01:08:34.410Z,24.92
2022-12-26T01:09:06.017Z,25.90
2022-12-26T01:09:38.555Z,28.83
2022-12-26T01:10:12.842Z,27.63
2022-12-26T01:10:53.749Z,27.20
2022-12-26T01:12:12.520Z,18.80
2022-12-26T01:12:44.492Z,23.77
2022-12-26T01:13:16.062Z,25.88
2022-12-26T01:13:47.751Z,26.48
2022-12-26T01:14:19.534Z,24.40
2022-12-26T01:14:51.087Z,21.15
2022-12-26T01:15:22.732Z,25.38
2022-12-26T01:15:54.565Z,26.77
2022-12-26T01:16:26.194Z,29.55
2022-12-26T01:16:57.818Z,25.90
2022-12-26T01:17:29.647Z,27.70
2022-12-26T01:18:03.076Z,27.90
2022-12-26T01:18:37.289Z,27.40
2022-12-26T01:19:10.145Z,23.92
2022-12-26T01:19:41.681Z,28.30
2022-12-26T01:20:14.749Z,28.45
2022-12-26T01:20:46.284Z,27.08
2022-12-26T01:21:17.845Z,23.25
2022-12-26T01:21:49.361Z,28.38
2022-12-26T01:22:21.804Z,28.90
2022-12-26T01:22:55.235Z,25.15
2022-12-26T01:23:26.948Z,29.00
2022-12-26T01:23:58.553Z,28.55
2022-12-26T01:24:30.295Z,29.77
2022-12-26T01:25:02.144Z,27.42
2022-12-26T01:25:33.774Z,24.10
2022-12-26T01:26:16.940Z,32.20
2022-12-26T01:26:51.840Z,26.13
2022-12-26T01:27:24.347Z,27.30
2022-12-26T01:27:57.181Z,30.38
2022-12-26T01:28:28.822Z,31.05
2022-12-26T01:29:02.416Z,32.15
2022-12-26T01:29:33.938Z,26.30
2022-12-26T01:30:06.197Z,32.65
2022-12-26T01:30:37.818Z,28.88
2022-12-26T01:31:09.400Z,29.58
2022-12-26T01:31:41.056Z,33.30
2022-12-26T01:32:12.837Z,29.10
2022-12-26T01:32:44.369Z,30.33
2022-12-26T01:33:16.255Z,29.95
2022-12-26T01:33:49.119Z,34.08
2022-12-26T01:34:21.596Z,30.52
2022-12-26T01:34:55.541Z,29.63
2022-12-26T01:35:28.283Z,31.02
2022-12-26T01:36:00.204Z,26.02
2022-12-26T01:36:34.626Z,31.67
2022-12-26T01:37:06.116Z,27.88
2022-12-26T01:37:37.706Z,28.60
2022-12-26T01:38:09.289Z,32.17
2022-12-26T01:38:40.810Z,34.13
2022-12-26T01:39:12.686Z,31.55
2022-12-26T01:39:44.308Z,29.50
2022-12-26T01:40:15.855Z,28.65
2022-12-26T01:40:48.705Z,25.75
2022-12-26T01:41:20.887Z,30.48
2022-12-26T01:41:55.841Z,31.38
2022-12-26T01:42:36.996Z,32.47
2022-12-26T01:43:12.160Z,31.45
2022-12-26T01:43:57.531Z,29.88
2022-12-26T01:45:06.174Z,31.40
2022-12-26T01:45:37.743Z,26.20
2022-12-26T01:46:09.350Z,30.95
2022-12-26T01:46:44.648Z,30.20
2022-12-26T01:47:17.054Z,33.58
2022-12-26T01:48:15.011Z,40.13
2022-12-26T01:48:46.911Z,33.30
2022-12-26T01:49:23.479Z,29.20
2022-12-26T01:49:55.699Z,28.95
2022-12-26T01:50:59.204Z,30.08
2022-12-26T01:51:34.194Z,28.35
2022-12-26T01:52:10.051Z,34.45
2022-12-26T01:52:45.046Z,25.40
2022-12-26T01:53:18.328Z,30.55
2022-12-26T01:53:52.594Z,31.40
2022-12-26T01:54:39.092Z,31.48
2022-12-26T01:55:16.360Z,31.02
2022-12-26T01:55:51.764Z,33.63
2022-12-26T01:56:30.475Z,29.58
2022-12-26T01:57:05.356Z,29.58
2022-12-26T01:57:41.691Z,28.73
2022-12-26T01:58:17.421Z,34.88
2022-12-26T01:59:02.556Z,32.75
2022-12-26T01:59:36.370Z,33.20
2022-12-26T02:00:08.884Z,36.10
2022-12-26T02:00:46.166Z,35.10
2022-12-26T02:01:19.056Z,31.13
2022-12-26T02:01:52.565Z,41.13
2022-12-26T02:02:28.732Z,36.15
2022-12-26T02:03:19.084Z,39.05
2022-12-26T02:04:09.518Z,40.33
2022-12-26T02:05:03.044Z,36.45
2022-12-26T02:05:37.070Z,39.72
2022-12-26T02:06:09.443Z,37.50
2022-12-26T02:06:41.470Z,38.63
2022-12-26T02:07:13.235Z,55.88
2022-12-26T02:07:45.890Z,38.78
2022-12-26T02:08:22.682Z,35.50
2022-12-26T02:08:54.446Z,41.42
2022-12-26T02:09:26.237Z,44.78
2022-12-26T02:09:57.850Z,46.75
2022-12-26T02:10:33.097Z,42.05
2022-12-26T02:11:12.862Z,49.58
2022-12-26T02:12:34.041Z,46.22
2022-12-26T02:12:43.074Z,43.20
2022-12-26T02:13:15.443Z,39.70
2022-12-26T02:13:47.219Z,46.92
2022-12-26T02:14:18.798Z,48.05
2022-12-26T02:14:50.594Z,46.63
2022-12-26T02:15:22.202Z,42.40
2022-12-26T02:15:53.712Z,50.20
2022-12-26T02:16:26.065Z,48.85
2022-12-26T02:16:57.685Z,41.90
2022-12-26T02:17:29.285Z,42.85
2022-12-26T02:18:00.847Z,49.85
2022-12-26T02:18:32.610Z,41.03
2022-12-26T02:19:08.187Z,50.08
2022-12-26T02:20:02.035Z,48.90
2022-12-26T02:20:57.851Z,50.65
2022-12-26T02:21:32.104Z,37.33
2022-12-26T02:22:37.329Z,46.20
2022-12-26T02:23:44.130Z,40.53
2022-12-26T02:24:24.130Z,41.70
2022-12-26T02:24:58.555Z,36.53
2022-12-26T02:26:04.788Z,37.25
2022-12-26T02:27:00.963Z,45.38
2022-12-26T02:27:42.084Z,33.65
2022-12-26T02:29:01.449Z,42.40
2022-12-26T02:29:45.061Z,41.05
2022-12-26T02:30:33.085Z,45.67
2022-12-26T02:31:16.477Z,46.20
2022-12-26T02:32:14.799Z,40.70
2022-12-26T02:33:33.961Z,38.85
2022-12-26T02:34:47.638Z,34.53
2022-12-26T02:35:51.268Z,40.20
2022-12-26T02:36:37.695Z,32.42
2022-12-26T02:37:15.277Z,40.53
2022-12-26T02:38:30.062Z,35.58
2022-12-26T02:39:45.387Z,36.35
2022-12-26T02:40:11.151Z,35.05
2022-12-26T02:40:42.854Z,39.05
2022-12-26T02:41:35.229Z,40.80
2022-12-26T02:42:11.446Z,43.15
2022-12-26T02:42:51.565Z,42.67
2022-12-26T02:43:45.417Z,37.88
2022-12-26T02:44:46.441Z,44.22
2022-12-26T02:45:53.430Z,36.97
2022-12-26T02:46:51.635Z,31.73
2022-12-26T02:47:55.317Z,37.50
2022-12-26T02:48:44.771Z,41.65
2022-12-26T02:50:03.373Z,40.47
2022-12-26T02:51:24.116Z,38.05
2022-12-26T02:52:20.403Z,37.72
2022-12-26T02:53:31.287Z,39.42
2022-12-26T02:54:53.378Z,36.60
2022-12-26T02:55:45.563Z,38.75
2022-12-26T02:56:43.211Z,40.80
2022-12-26T02:57:57.848Z,34.92
2022-12-26T02:59:11.440Z,33.70
2022-12-26T03:00:04.316Z,35.90
2022-12-26T03:00:56.157Z,38.10
2022-12-26T03:01:54.342Z,37.65
2022-12-26T03:02:50.182Z,35.10
2022-12-26T03:03:45.082Z,35.65
2022-12-26T03:04:37.613Z,36.15
2022-12-26T03:05:35.193Z,36.05
2022-12-26T03:06:30.301Z,36.30
2022-12-26T03:07:22.817Z,32.28
2022-12-26T03:08:12.965Z,36.22
2022-12-26T03:09:22.724Z,33.03
2022-12-26T03:10:14.569Z,39.78
2022-12-26T03:11:04.740Z,37.95
2022-12-26T03:11:59.767Z,32.53
2022-12-26T03:13:03.687Z,36.97
2022-12-26T03:13:36.990Z,37.25
2022-12-26T03:14:18.596Z,39.05
2022-12-26T03:14:59.731Z,37.08
2022-12-26T03:15:52.435Z,32.75
2022-12-26T03:16:44.088Z,41.38
2022-12-26T03:17:26.922Z,35.90
2022-12-26T03:18:04.204Z,36.55
2022-12-26T03:18:59.526Z,35.53
2022-12-26T03:19:31.714Z,35.38
2022-12-26T03:20:14.295Z,34.85
2022-12-26T03:20:46.578Z,40.72
2022-12-26T03:21:21.703Z,29.25
2022-12-26T03:21:53.270Z,35.50
2022-12-26T03:22:48.916Z,35.65
2022-12-26T03:23:21.441Z,38.38
2022-12-26T03:23:54.550Z,32.80
2022-12-26T03:24:46.649Z,30.25
2022-12-26T03:25:51.337Z,33.33
2022-12-26T03:26:41.395Z,34.22
2022-12-26T03:27:12.942Z,32.53
2022-12-26T03:27:44.800Z,32.95
2022-12-26T03:28:16.841Z,28.75
2022-12-26T03:28:48.529Z,34.33
2022-12-26T03:29:41.596Z,31.77
2022-12-26T03:30:31.620Z,35.03
2022-12-26T03:31:07.520Z,32.08
2022-12-26T03:31:39.211Z,39.45
2022-12-26T03:32:12.698Z,32.53
2022-12-26T03:32:44.656Z,31.88
2022-12-26T03:33:47.973Z,35.00
2022-12-26T03:34:21.459Z,30.08
2022-12-26T03:34:53.043Z,33.13
2022-12-26T03:35:26.415Z,32.70
2022-12-26T03:35:58.467Z,32.13
2022-12-26T03:37:08.171Z,34.20
2022-12-26T03:38:10.170Z,33.38
2022-12-26T03:38:56.103Z,33.80
2022-12-26T03:40:04.707Z,38.17
2022-12-26T03:40:57.802Z,36.28
2022-12-26T03:42:04.411Z,32.25
2022-12-26T03:42:54.332Z,31.50
2022-12-26T03:43:55.956Z,31.10
2022-12-26T03:45:05.277Z,31.63
2022-12-26T03:46:04.975Z,47.28
2022-12-26T03:47:04.679Z,34.75
2022-12-26T03:48:12.471Z,32.38
2022-12-26T03:49:15.168Z,34.08
2022-12-26T03:50:12.470Z,29.98
2022-12-26T03:51:05.393Z,32.28
2022-12-26T03:52:07.567Z,31.33
2022-12-26T03:53:16.509Z,28.02
2022-12-26T03:54:14.775Z,27.73
2022-12-26T03:55:32.448Z,31.08
2022-12-26T03:56:32.853Z,30.80
2022-12-26T03:57:25.468Z,37.85
2022-12-26T03:58:27.574Z,31.67
2022-12-26T03:59:30.126Z,37.38
2022-12-26T04:00:30.806Z,34.25
2022-12-26T04:01:25.876Z,33.20
2022-12-26T04:02:20.316Z,34.15
2022-12-26T04:03:13.022Z,31.83
2022-12-26T04:04:04.229Z,31.38
2022-12-26T04:04:56.353Z,36.63
2022-12-26T04:05:46.667Z,30.95
2022-12-26T04:06:39.846Z,36.65
2022-12-26T04:07:35.267Z,28.85
2022-12-26T04:08:33.753Z,35.20
2022-12-26T04:09:34.944Z,30.55
2022-12-26T04:10:28.176Z,29.40
2022-12-26T04:11:23.590Z,27.45
2022-12-26T04:12:15.678Z,35.03
2022-12-26T04:13:06.838Z,28.60
2022-12-26T04:14:24.999Z,33.45
2022-12-26T04:15:29.829Z,30.33
2022-12-26T04:16:29.116Z,33.17
2022-12-26T04:17:49.237Z,30.33
2022-12-26T04:18:45.957Z,31.63
2022-12-26T04:19:51.007Z,28.92
2022-12-26T04:20:43.805Z,34.63
2022-12-26T04:21:55.186Z,32.35
2022-12-26T04:23:08.876Z,30.85
2022-12-26T04:24:05.683Z,29.88
2022-12-26T04:25:02.311Z,28.20
2022-12-26T04:26:16.283Z,27.92
2022-12-26T04:27:12.366Z,27.70
2022-12-26T04:28:02.417Z,29.15
2022-12-26T04:28:55.059Z,31.08
2022-12-26T04:29:45.172Z,25.95
2022-12-26T04:30:35.714Z,36.85
2022-12-26T04:31:29.770Z,30.00
2022-12-26T04:32:29.184Z,38.28
2022-12-26T04:33:43.143Z,31.15
2022-12-26T04:34:40.609Z,26.95
2022-12-26T04:35:44.583Z,30.45
2022-12-26T04:36:44.123Z,28.15
2022-12-26T04:37:39.922Z,34.28
2022-12-26T04:38:33.478Z,32.08
2022-12-26T04:39:25.126Z,28.67
2022-12-26T04:40:16.632Z,31.90
2022-12-26T04:41:11.287Z,26.48
2022-12-26T04:42:01.867Z,31.30
2022-12-26T04:42:52.838Z,35.15
2022-12-26T04:43:49.562Z,31.27
2022-12-26T04:44:24.435Z,35.80
2022-12-26T04:44:56.370Z,37.50
2022-12-26T04:45:28.408Z,32.17
2022-12-26T04:46:00.812Z,38.28
2022-12-26T04:46:34.606Z,31.17
2022-12-26T04:47:12.334Z,31.33
2022-12-26T04:48:04.926Z,38.53
2022-12-26T04:49:06.742Z,33.55
2022-12-26T04:50:04.312Z,38.00
2022-12-26T04:50:36.787Z,33.15
2022-12-26T04:51:10.909Z,37.85
2022-12-26T04:51:42.451Z,38.38
2022-12-26T04:52:14.819Z,38.38
2022-12-26T04:52:59.080Z,45.38
2022-12-26T04:53:31.196Z,34.30
2022-12-26T04:54:03.678Z,39.47
2022-12-26T04:54:35.646Z,35.65
2022-12-26T04:55:09.771Z,38.03
2022-12-26T04:55:41.264Z,36.85
2022-12-26T04:56:14.030Z,38.10
2022-12-26T04:56:45.937Z,42.20
2022-12-26T04:57:17.802Z,38.85
2022-12-26T04:57:49.336Z,42.53
2022-12-26T04:58:24.225Z,42.42
2022-12-26T04:58:55.793Z,39.53
2022-12-26T04:59:27.517Z,43.13
2022-12-26T04:59:59.049Z,39.97
2022-12-26T05:00:30.581Z,39.42
2022-12-26T05:01:21.079Z,44.45
2022-12-26T05:02:12.438Z,39.25
2022-12-26T05:03:02.439Z,45.30
2022-12-26T05:03:52.651Z,36.63
2022-12-26T05:04:42.918Z,42.40
2022-12-26T05:05:32.984Z,39.92
2022-12-26T05:06:23.251Z,38.45
2022-12-26T05:07:13.874Z,43.75
2022-12-26T05:08:04.005Z,45.67
2022-12-26T05:08:57.394Z,40.10
2022-12-26T05:09:34.881Z,35.72
2022-12-26T05:10:08.687Z,43.85
2022-12-26T05:10:40.320Z,41.80
2022-12-26T05:11:11.854Z,41.22
2022-12-26T05:11:49.668Z,38.60
2022-12-26T05:12:21.443Z,44.15
2022-12-26T05:12:53.664Z,42.33
2022-12-26T05:13:25.274Z,44.38
2022-12-26T05:13:58.384Z,40.30
2022-12-26T05:14:34.088Z,45.40
2022-12-26T05:15:06.004Z,38.92
2022-12-26T05:15:57.666Z,44.45
2022-12-26T05:16:47.871Z,44.60
2022-12-26T05:17:38.580Z,45.10
2022-12-26T05:18:28.678Z,38.80
2022-12-26T05:19:19.355Z,39.33
2022-12-26T05:20:09.801Z,36.22
2022-12-26T05:20:47.170Z,47.08
2022-12-26T05:21:37.964Z,39.08
2022-12-26T05:22:28.961Z,38.35
2022-12-26T05:23:20.462Z,35.38
2022-12-26T05:24:10.454Z,37.28
2022-12-26T05:25:01.230Z,42.95
2022-12-26T05:25:54.355Z,36.80
2022-12-26T05:26:45.006Z,38.78
2022-12-26T05:27:43.146Z,36.35
2022-12-26T05:28:34.631Z,38.85
2022-12-26T05:29:37.800Z,38.00
2022-12-26T05:30:10.066Z,35.35
2022-12-26T05:30:41.565Z,39.70
2022-12-26T05:31:16.261Z,40.75
2022-12-26T05:31:47.856Z,38.88
2022-12-26T05:32:38.095Z,36.25
2022-12-26T05:33:28.141Z,39.42
2022-12-26T05:34:05.597Z,39.22
2022-12-26T05:34:37.136Z,41.00
2022-12-26T05:35:09.098Z,43.55
2022-12-26T05:35:41.010Z,37.30
2022-12-26T05:36:13.368Z,39.53
2022-12-26T05:36:49.097Z,33.08
2022-12-26T05:37:20.738Z,35.58
2022-12-26T05:37:52.237Z,37.47
2022-12-26T05:38:23.759Z,32.67
2022-12-26T05:38:56.240Z,37.33
2022-12-26T05:39:27.792Z,34.47
2022-12-26T05:39:59.325Z,40.35
2022-12-26T05:40:30.909Z,37.03
2022-12-26T05:41:03.203Z,39.08
2022-12-26T05:41:35.471Z,33.47
2022-12-26T05:42:06.989Z,40.88
2022-12-26T05:42:38.643Z,40.00
2022-12-26T05:43:10.302Z,35.03
2022-12-26T05:43:41.897Z,36.95
2022-12-26T05:44:13.440Z,37.42
2022-12-26T05:44:44.936Z,38.22
2022-12-26T05:45:16.610Z,39.03
2022-12-26T05:45:51.542Z,37.92
2022-12-26T05:46:23.145Z,33.50
2022-12-26T05:46:54.826Z,36.83
2022-12-26T05:47:29.126Z,33.60
2022-12-26T05:48:01.826Z,37.22
2022-12-26T05:48:36.177Z,38.03
2022-12-26T05:49:07.855Z,33.42
2022-12-26T05:49:45.394Z,36.58
2022-12-26T05:50:16.959Z,34.38
2022-12-26T05:50:48.493Z,35.10
2022-12-26T05:51:20.064Z,32.10
2022-12-26T05:51:51.732Z,36.35
2022-12-26T05:52:23.636Z,40.63
2022-12-26T05:52:59.207Z,34.28
2022-12-26T05:53:31.205Z,38.65
2022-12-26T05:54:02.870Z,31.63
2022-12-26T05:54:34.401Z,35.72
2022-12-26T05:55:06.455Z,34.60
2022-12-26T05:55:37.948Z,33.42
2022-12-26T05:56:14.280Z,32.55
2022-12-26T05:56:49.263Z,33.05
2022-12-26T05:57:21.131Z,33.05
2022-12-26T05:57:52.733Z,32.13
2022-12-26T05:58:24.240Z,31.95
2022-12-26T05:58:57.900Z,38.83
2022-12-26T05:59:30.113Z,33.17
2022-12-26T06:00:02.384Z,36.50
2022-12-26T06:00:36.053Z,29.50
2022-12-26T06:01:10.826Z,35.30
2022-12-26T06:01:42.488Z,33.67
2022-12-26T06:02:14.208Z,33.63
2022-12-26T06:02:47.900Z,32.03
2022-12-26T06:03:19.691Z,30.05
2022-12-26T06:03:56.538Z,32.53
2022-12-26T06:04:30.335Z,29.77
2022-12-26T06:05:01.864Z,32.10
2022-12-26T06:05:33.421Z,31.73
2022-12-26T06:06:06.243Z,33.08
2022-12-26T06:06:37.773Z,32.70
2022-12-26T06:07:09.286Z,34.15
2022-12-26T06:07:40.872Z,28.60
2022-12-26T06:08:12.386Z,30.30
2022-12-26T06:08:44.364Z,31.52
2022-12-26T06:09:17.924Z,30.23
2022-12-26T06:09:49.419Z,30.17
2022-12-26T06:10:21.139Z,29.17
2022-12-26T06:10:52.813Z,29.05
2022-12-26T06:11:26.385Z,31.48
2022-12-26T06:11:58.015Z,29.17
2022-12-26T06:12:29.608Z,30.08
2022-12-26T06:13:01.648Z,29.17
2022-12-26T06:13:34.238Z,30.70
2022-12-26T06:14:05.791Z,29.02
2022-12-26T06:14:37.376Z,28.52
2022-12-26T06:15:09.529Z,29.67
2022-12-26T06:15:41.136Z,29.08
2022-12-26T06:16:15.008Z,27.40
2022-12-26T06:16:46.587Z,29.65
2022-12-26T06:17:18.270Z,26.13
2022-12-26T06:17:49.781Z,31.25
2022-12-26T06:18:23.055Z,30.25
2022-12-26T06:18:55.065Z,24.73
2022-12-26T06:19:26.664Z,24.55
2022-12-26T06:19:58.511Z,25.92
2022-12-26T06:20:30.071Z,27.52
2022-12-26T06:21:12.863Z,26.05
2022-12-26T06:21:44.437Z,28.33
2022-12-26T06:22:15.931Z,26.38
2022-12-26T06:22:47.465Z,26.50
2022-12-26T06:23:19.982Z,22.35
2022-12-26T06:23:51.719Z,24.88
2022-12-26T06:24:23.234Z,21.63
2022-12-26T06:24:54.782Z,24.00
2022-12-26T06:25:26.331Z,21.85
2022-12-26T06:25:58.119Z,25.85
2022-12-26T06:26:29.658Z,22.98
2022-12-26T06:27:01.184Z,28.15
2022-12-26T06:27:32.951Z,21.48
2022-12-26T06:28:04.615Z,22.90
2022-12-26T06:28:38.326Z,21.33
2022-12-26T06:29:10.216Z,22.30
2022-12-26T06:29:41.972Z,20.98
2022-12-26T06:30:13.631Z,22.25
2022-12-26T06:30:45.154Z,19.75
2022-12-26T06:31:20.851Z,20.02
2022-12-26T06:31:52.862Z,21.92
2022-12-26T06:32:24.461Z,23.83
2022-12-26T06:32:55.972Z,20.38
2022-12-26T06:33:27.494Z,20.23
2022-12-26T06:34:02.216Z,21.65
2022-12-26T06:34:33.788Z,21.67
2022-12-26T06:35:05.793Z,19.45
2022-12-26T06:35:37.352Z,19.88
2022-12-26T06:36:11.977Z,18.40
2022-12-26T06:36:43.558Z,19.45
2022-12-26T06:37:15.306Z,17.42
2022-12-26T06:37:46.813Z,17.73
2022-12-26T06:38:18.344Z,20.42
2022-12-26T06:38:50.533Z,17.73
2022-12-26T06:39:22.916Z,19.10
2022-12-26T06:39:54.502Z,17.80
2022-12-26T06:40:34.740Z,16.70
2022-12-26T06:41:08.045Z,22.17
2022-12-26T06:41:39.538Z,18.20
2022-12-26T06:42:11.062Z,20.60
2022-12-26T06:42:42.917Z,21.08
2022-12-26T06:43:16.578Z,17.27
2022-12-26T06:43:48.874Z,16.52
2022-12-26T06:44:20.435Z,18.00
2022-12-26T06:44:52.013Z,16.90
2022-12-26T06:45:23.681Z,16.73
2022-12-26T06:45:59.046Z,16.48
2022-12-26T06:46:30.702Z,16.65
2022-12-26T06:47:03.253Z,15.85
2022-12-26T06:47:34.891Z,17.48
2022-12-26T06:48:09.461Z,15.05
2022-12-26T06:48:41.019Z,15.48
2022-12-26T06:49:12.656Z,14.48
2022-12-26T06:49:44.244Z,17.65
2022-12-26T06:50:15.867Z,15.98
2022-12-26T06:50:47.433Z,15.10
2022-12-26T06:51:22.204Z,17.73
2022-12-26T06:51:53.757Z,16.42
2022-12-26T06:52:25.273Z,15.00
2022-12-26T06:52:56.789Z,13.77
2022-12-26T06:53:28.358Z,14.98
2022-12-26T06:54:03.936Z,13.57
2022-12-26T06:54:35.590Z,13.77
2022-12-26T06:55:07.620Z,12.50
2022-12-26T06:55:39.109Z,13.63
2022-12-26T06:56:10.748Z,14.77
2022-12-26T06:56:45.081Z,14.55
2022-12-26T06:57:16.720Z,13.00
2022-12-26T06:57:48.275Z,13.80
2022-12-26T06:58:19.818Z,14.85
2022-12-26T06:58:55.376Z,13.90
2022-12-26T06:59:27.306Z,11.90
2022-12-26T06:59:58.844Z,14.85
2022-12-26T07:00:34.719Z,12.10
2022-12-26T07:01:17.372Z,12.65
2022-12-26T07:01:49.251Z,14.02
2022-12-26T07:02:21.142Z,11.82
2022-12-26T07:02:52.786Z,12.88
2022-12-26T07:03:26.344Z,12.80
2022-12-26T07:03:58.199Z,12.00
2022-12-26T07:04:30.781Z,12.77
2022-12-26T07:05:02.336Z,11.90
2022-12-26T07:05:36.596Z,10.98
2022-12-26T07:06:12.324Z,17.42
2022-12-26T07:06:43.932Z,13.80
2022-12-26T07:07:15.677Z,10.82
2022-12-26T07:07:52.251Z,12.85
2022-12-26T07:08:23.836Z,11.77
2022-12-26T07:09:01.054Z,14.93
2022-12-26T07:09:34.126Z,12.68
2022-12-26T07:10:07.139Z,12.45
2022-12-26T07:10:38.653Z,11.00
2022-12-26T07:11:18.380Z,11.27
2022-12-26T07:11:50.902Z,12.18
2022-12-26T07:12:22.576Z,11.02
2022-12-26T07:12:54.187Z,10.63
2022-12-26T07:13:25.848Z,12.90
2022-12-26T07:13:57.915Z,11.93
2022-12-26T07:14:29.466Z,10.45
2022-12-26T07:15:01.837Z,11.68
2022-12-26T07:15:34.188Z,10.35
2022-12-26T07:16:05.981Z,13.77
2022-12-26T07:16:39.262Z,11.48
2022-12-26T07:17:11.865Z,10.10
2022-12-26T07:17:43.459Z,12.32
2022-12-26T07:18:17.072Z,12.98
2022-12-26T07:18:55.617Z,11.10
2022-12-26T07:19:27.247Z,9.77
2022-12-26T07:19:58.811Z,11.23
2022-12-26T07:20:30.398Z,9.68
2022-12-26T07:21:09.896Z,9.52
2022-12-26T07:21:42.400Z,15.27
2022-12-26T07:22:33.907Z,9.43
2022-12-26T07:23:37.586Z,12.70
2022-12-26T07:25:55.647Z,11.57
2022-12-26T07:26:27.559Z,9.73
2022-12-26T07:27:01.761Z,9.75
2022-12-26T07:27:33.426Z,8.27
2022-12-26T07:28:10.121Z,9.85
2022-12-26T07:42:30.588Z,8.07
2022-12-26T07:43:03.787Z,12.13
2022-12-26T07:43:38.104Z,11.25
2022-12-26T07:44:10.771Z,11.15
2022-12-26T07:44:43.341Z,9.30
2022-12-26T07:45:14.971Z,11.77
2022-12-26T07:45:46.765Z,11.85
2022-12-26T07:46:18.979Z,11.27
2022-12-26T07:46:50.687Z,12.48
2022-12-26T07:47:22.297Z,11.80
2022-12-26T07:47:54.820Z,12.25
2022-12-26T07:48:26.324Z,9.63
2022-12-26T07:48:57.966Z,10.25
2022-12-26T07:49:29.488Z,14.50
2022-12-26T07:50:01.016Z,11.57
2022-12-26T07:50:32.654Z,14.48
2022-12-26T07:51:04.351Z,12.07
2022-12-26T07:51:35.941Z,11.00
2022-12-26T07:52:07.566Z,15.10
2022-12-26T07:52:39.090Z,10.75
2022-12-26T07:53:10.648Z,11.05
2022-12-26T07:53:42.178Z,13.05
2022-12-26T07:54:13.722Z,8.23
2022-12-26T07:54:45.317Z,11.07
2022-12-26T07:55:17.572Z,14.07
2022-12-26T07:55:49.774Z,12.00
2022-12-26T07:56:21.317Z,11.02
2022-12-26T07:56:52.877Z,13.93
2022-12-26T07:58:16.399Z,9.98
2022-12-26T07:58:54.168Z,11.95
2022-12-26T07:59:29.739Z,9.88
2022-12-26T08:00:03.251Z,10.45
2022-12-26T08:00:43.600Z,8.15
2022-12-26T08:01:16.290Z,12.27
2022-12-26T08:01:48.170Z,20.55
2022-12-26T08:02:20.198Z,9.75
2022-12-26T08:02:53.264Z,9.95
2022-12-26T08:03:24.915Z,9.60
2022-12-26T08:03:56.555Z,9.88
2022-12-26T08:04:28.426Z,9.73
2022-12-26T08:05:00.296Z,11.20
2022-12-26T08:05:32.603Z,9.13
2022-12-26T08:06:04.319Z,11.32
2022-12-26T08:06:36.002Z,11.75
2022-12-26T08:07:07.665Z,10.00
2022-12-26T08:07:39.164Z,9.55
2022-12-26T08:08:10.669Z,10.68
2022-12-26T08:08:48.552Z,10.25
2022-12-26T08:09:22.167Z,11.30
2022-12-26T08:09:53.684Z,10.45
2022-12-26T08:10:25.195Z,10.25
2022-12-26T08:11:01.190Z,9.75
2022-12-26T08:11:34.539Z,9.70
2022-12-26T08:12:06.173Z,10.52
2022-12-26T08:12:37.824Z,16.55
2022-12-26T08:13:09.560Z,11.23
2022-12-26T08:13:41.066Z,10.82
2022-12-26T08:14:13.872Z,13.90
2022-12-26T08:14:45.430Z,9.82
2022-12-26T08:15:17.118Z,10.38
2022-12-26T08:15:48.640Z,12.18
2022-12-26T08:16:20.646Z,9.30
2022-12-26T08:16:53.781Z,14.88
2022-12-26T08:17:25.519Z,10.45
2022-12-26T08:18:00.118Z,13.27
2022-12-26T08:18:32.793Z,10.88
2022-12-26T08:19:04.350Z,11.00
2022-12-26T08:19:35.925Z,10.02
2022-12-26T08:20:07.905Z,12.48
2022-12-26T08:20:39.502Z,13.73
2022-12-26T08:21:12.026Z,8.80
2022-12-26T08:21:43.554Z,9.10
2022-12-26T08:22:15.280Z,11.48
2022-12-26T08:23:32.080Z,12.23
2022-12-26T08:24:03.846Z,11.73
2022-12-26T08:24:35.492Z,10.63
2022-12-26T08:25:07.622Z,9.80
2022-12-26T08:25:39.515Z,8.52
2022-12-26T08:26:13.882Z,11.90
2022-12-26T08:26:46.774Z,11.70
2022-12-26T08:27:18.513Z,11.50
2022-12-26T08:27:50.037Z,8.07
2022-12-26T08:28:21.589Z,10.57
2022-12-26T08:28:56.221Z,10.07
2022-12-26T08:29:27.776Z,11.77
2022-12-26T08:29:59.328Z,11.02
2022-12-26T08:30:30.870Z,12.52
2022-12-26T08:31:09.832Z,13.02
2022-12-26T08:31:41.351Z,7.78
2022-12-26T08:32:12.895Z,9.27
2022-12-26T08:32:46.348Z,9.32
2022-12-26T08:33:19.535Z,7.78
2022-12-26T08:33:55.587Z,8.25